﻿<?xml version="1.0" encoding="UTF-8" standalone="no"?>
<gpx xmlns="http://www.topografix.com/GPX/1/1" xmlns:gpxtpx="http://www.garmin.com/xmlschemas/TrackPointExtension/v1" xmlns:xsi="http://www.w3.org/2001/XMLSchema-instance" creator="Hribi.net" version="1.1" xsi:schemaLocation="http://www.topografix.com/GPX/1/1 http://www.topografix.com/GPX/1/1/gpx.xsd http://www.garmin.com/xmlschemas/TrackPointExtension/v1 http://www.garmin.com/xmlschemas/TrackPointExtensionv1.xsd">
  <metadata>
    <name>GPS sled</name>
    <desc>www.hribi.net</desc>
    <author>
      <name>hribi.net</name>
    </author>
    <link href="http://www.hribi.net">
      <text>Hribi.net</text>
    </link>
  </metadata>
  <trk>
    <trkseg>
      <trkpt lat="46.4904499053956" lon="14.2380881309509">
        <ele>946.074707031251</ele>
        <time>2007-11-27T07:41:25Z</time>
      </trkpt>
      <trkpt lat="46.4904499053956" lon="14.2381095886231">
        <ele>946.074707031251</ele>
        <time>2007-11-27T07:41:24Z</time>
      </trkpt>
      <trkpt lat="46.4903640747071" lon="14.2383670806885">
        <ele>945.593994140626</ele>
        <time>2007-11-27T07:41:12Z</time>
      </trkpt>
      <trkpt lat="46.4902567863465" lon="14.2386889457703">
        <ele>946.555419921876</ele>
        <time>2007-11-27T07:40:55Z</time>
      </trkpt>
      <trkpt lat="46.4902997016907" lon="14.2389035224915">
        <ele>946.074707031251</ele>
        <time>2007-11-27T07:40:35Z</time>
      </trkpt>
      <trkpt lat="46.4903640747071" lon="14.2390537261963">
        <ele>944.632568359375</ele>
        <time>2007-11-27T07:39:45Z</time>
      </trkpt>
      <trkpt lat="46.4904928207398" lon="14.2391180992127">
        <ele>949.919921875</ele>
        <time>2007-11-27T07:39:27Z</time>
      </trkpt>
      <trkpt lat="46.4906644821167" lon="14.2392468452454">
        <ele>943.671386718749</ele>
        <time>2007-11-27T07:39:07Z</time>
      </trkpt>
      <trkpt lat="46.4907932281495" lon="14.2390966415405">
        <ele>944.152099609374</ele>
        <time>2007-11-27T07:38:52Z</time>
      </trkpt>
      <trkpt lat="46.4909648895264" lon="14.2388606071472">
        <ele>949.439208984375</ele>
        <time>2007-11-27T07:38:15Z</time>
      </trkpt>
      <trkpt lat="46.4909648895264" lon="14.2386031150818">
        <ele>949.439208984375</ele>
        <time>2007-11-27T07:37:59Z</time>
      </trkpt>
      <trkpt lat="46.4911365509034" lon="14.2386674880982">
        <ele>954.245849609375</ele>
        <time>2007-11-27T07:37:42Z</time>
      </trkpt>
      <trkpt lat="46.4912652969361" lon="14.2388820648193">
        <ele>953.76513671875</ele>
        <time>2007-11-27T07:37:31Z</time>
      </trkpt>
      <trkpt lat="46.4914155006409" lon="14.2391180992127">
        <ele>954.726318359376</ele>
        <time>2007-11-27T07:37:19Z</time>
      </trkpt>
      <trkpt lat="46.4915013313294" lon="14.2391610145569">
        <ele>957.129882812501</ele>
        <time>2007-11-27T07:36:50Z</time>
      </trkpt>
      <trkpt lat="46.4916729927063" lon="14.2392039299011">
        <ele>962.897705078124</ele>
        <time>2007-11-27T07:36:35Z</time>
      </trkpt>
      <trkpt lat="46.4918661117554" lon="14.2392468452454">
        <ele>963.85888671875</ele>
        <time>2007-11-27T07:36:17Z</time>
      </trkpt>
      <trkpt lat="46.4920377731324" lon="14.2392897605896">
        <ele>968.184814453125</ele>
        <time>2007-11-27T07:36:01Z</time>
      </trkpt>
      <trkpt lat="46.4922094345093" lon="14.2393326759339">
        <ele>970.107421875001</ele>
        <time>2007-11-27T07:35:50Z</time>
      </trkpt>
      <trkpt lat="46.4923810958863" lon="14.2391610145569">
        <ele>982.604736328124</ele>
        <time>2007-11-27T07:34:59Z</time>
      </trkpt>
      <trkpt lat="46.4925527572632" lon="14.2392039299011">
        <ele>985.969238281251</ele>
        <time>2007-11-27T07:34:33Z</time>
      </trkpt>
      <trkpt lat="46.4926600456238" lon="14.2389678955078">
        <ele>986.930419921874</ele>
        <time>2007-11-27T07:34:19Z</time>
      </trkpt>
      <trkpt lat="46.4927458763123" lon="14.2387747764588">
        <ele>993.659912109375</ele>
        <time>2007-11-27T07:33:52Z</time>
      </trkpt>
      <trkpt lat="46.4925956726075" lon="14.2385601997376">
        <ele>1000.38916015625</ele>
        <time>2007-11-27T07:33:25Z</time>
      </trkpt>
      <trkpt lat="46.4925742149353" lon="14.2384099960327">
        <ele>1004.23461914062</ele>
        <time>2007-11-27T07:32:58Z</time>
      </trkpt>
      <trkpt lat="46.4928102493286" lon="14.2383241653443">
        <ele>1009.041015625</ele>
        <time>2007-11-27T07:32:41Z</time>
      </trkpt>
      <trkpt lat="46.493046283722" lon="14.2381739616394">
        <ele>1009.52172851563</ele>
        <time>2007-11-27T07:32:25Z</time>
      </trkpt>
      <trkpt lat="46.4932179450989" lon="14.2380452156067">
        <ele>1025.86401367188</ele>
        <time>2007-11-27T07:32:01Z</time>
      </trkpt>
      <trkpt lat="46.4937705993652" lon="14.2379369735718">
        <ele>1028.748046875</ele>
        <time>2007-11-27T07:31:42Z</time>
      </trkpt>
      <trkpt lat="46.4952201843262" lon="14.2403593063354">
        <ele>1131.12841796875</ele>
        <time>2007-11-27T03:18:43Z</time>
      </trkpt>
      <trkpt lat="46.4955568313599" lon="14.2404270172119">
        <ele>1138.81909179688</ele>
        <time>2007-11-27T03:20:00Z</time>
      </trkpt>
      <trkpt lat="46.4959430694581" lon="14.2404699325562">
        <ele>1140.26098632813</ele>
        <time>2007-11-27T03:21:16Z</time>
      </trkpt>
      <trkpt lat="46.4961576461792" lon="14.2403626441956">
        <ele>1142.66430664062</ele>
        <time>2007-11-27T03:21:46Z</time>
      </trkpt>
      <trkpt lat="46.4963507652283" lon="14.2404055595398">
        <ele>1158.04541015625</ele>
        <time>2007-11-27T03:23:30Z</time>
      </trkpt>
      <trkpt lat="46.4965009689331" lon="14.2402338981629">
        <ele>1159.9677734375</ele>
        <time>2007-11-27T03:23:58Z</time>
      </trkpt>
      <trkpt lat="46.4967799186707" lon="14.240448474884">
        <ele>1169.1005859375</ele>
        <time>2007-11-27T03:25:26Z</time>
      </trkpt>
      <trkpt lat="46.4968228340149" lon="14.2411780357361">
        <ele>1199.38208007813</ele>
        <time>2007-11-27T03:27:26Z</time>
      </trkpt>
      <trkpt lat="46.497187614441" lon="14.2411780357361">
        <ele>1206.11108398437</ele>
        <time>2007-11-27T03:28:58Z</time>
      </trkpt>
      <trkpt lat="46.4973378181458" lon="14.241349697113">
        <ele>1208.03393554688</ele>
        <time>2007-11-27T03:29:21Z</time>
      </trkpt>
      <trkpt lat="46.4974880218506" lon="14.2413926124573">
        <ele>1213.8017578125</ele>
        <time>2007-11-27T03:29:47Z</time>
      </trkpt>
      <trkpt lat="46.4977025985718" lon="14.2414355278015">
        <ele>1212.35986328125</ele>
        <time>2007-11-27T03:30:07Z</time>
      </trkpt>
      <trkpt lat="46.4978957176209" lon="14.2416286468506">
        <ele>1223.4150390625</ele>
        <time>2007-11-27T03:30:29Z</time>
      </trkpt>
      <trkpt lat="46.4981317520142" lon="14.241886138916">
        <ele>1225.81811523437</ele>
        <time>2007-11-27T03:30:46Z</time>
      </trkpt>
      <trkpt lat="46.4982604980469" lon="14.242057800293">
        <ele>1226.298828125</ele>
        <time>2007-11-27T03:30:57Z</time>
      </trkpt>
      <trkpt lat="46.4983248710633" lon="14.2423152923584">
        <ele>1231.58618164062</ele>
        <time>2007-11-27T03:31:13Z</time>
      </trkpt>
      <trkpt lat="46.4981532096863" lon="14.2425298690796">
        <ele>1242.16064453125</ele>
        <time>2007-11-27T03:31:38Z</time>
      </trkpt>
      <trkpt lat="46.4981961250306" lon="14.2427659034729">
        <ele>1244.56396484375</ele>
        <time>2007-11-27T03:31:58Z</time>
      </trkpt>
      <trkpt lat="46.4981746673584" lon="14.2430019378662">
        <ele>1248.88989257813</ele>
        <time>2007-11-27T03:32:25Z</time>
      </trkpt>
      <trkpt lat="46.4981532096863" lon="14.2434525489807">
        <ele>1255.13842773437</ele>
        <time>2007-11-27T03:33:22Z</time>
      </trkpt>
      <trkpt lat="46.4982175827027" lon="14.2439889907837">
        <ele>1310.41430664062</ele>
        <time>2007-11-27T03:36:14Z</time>
      </trkpt>
      <trkpt lat="46.4983248710633" lon="14.2446970939636">
        <ele>1352.2314453125</ele>
        <time>2007-11-27T03:38:33Z</time>
      </trkpt>
      <trkpt lat="46.4983677864075" lon="14.2448043823242">
        <ele>1353.67358398438</ele>
        <time>2007-11-27T03:39:17Z</time>
      </trkpt>
      <trkpt lat="46.4985394477845" lon="14.245126247406">
        <ele>1352.71215820313</ele>
        <time>2007-11-27T03:39:37Z</time>
      </trkpt>
      <trkpt lat="46.4987111091614" lon="14.2455124855042">
        <ele>1349.34765625</ele>
        <time>2007-11-27T03:40:27Z</time>
      </trkpt>
      <trkpt lat="46.4987969398499" lon="14.2458772659302">
        <ele>1355.59619140625</ele>
        <time>2007-11-27T03:40:52Z</time>
      </trkpt>
      <trkpt lat="46.4987969398499" lon="14.2461776733399">
        <ele>1364.72875976562</ele>
        <time>2007-11-27T03:41:19Z</time>
      </trkpt>
      <trkpt lat="46.4987540245057" lon="14.2464566230774">
        <ele>1369.53540039062</ele>
        <time>2007-11-27T03:41:46Z</time>
      </trkpt>
      <trkpt lat="46.498625278473" lon="14.2466711997986">
        <ele>1375.78393554687</ele>
        <time>2007-11-27T03:42:11Z</time>
      </trkpt>
      <trkpt lat="46.4986896514893" lon="14.2471861839295">
        <ele>1410.39135742187</ele>
        <time>2007-11-27T03:46:03Z</time>
      </trkpt>
      <trkpt lat="46.4989256858826" lon="14.247100353241">
        <ele>1412.79467773438</ele>
        <time>2007-11-27T03:46:34Z</time>
      </trkpt>
      <trkpt lat="46.4990758895874" lon="14.2470359802246">
        <ele>1412.31396484375</ele>
        <time>2007-11-27T03:46:49Z</time>
      </trkpt>
      <trkpt lat="46.5000629425049" lon="14.2471647262573">
        <ele>1479.12548828125</ele>
        <time>2007-11-27T03:54:22Z</time>
      </trkpt>
      <trkpt lat="46.5002989768982" lon="14.2471861839295">
        <ele>1517.09790039063</ele>
        <time>2007-11-27T03:56:02Z</time>
      </trkpt>
      <trkpt lat="46.5005779266358" lon="14.2475295066834">
        <ele>1516.13647460938</ele>
        <time>2007-11-27T03:57:53Z</time>
      </trkpt>
      <trkpt lat="46.5008783340454" lon="14.2478728294373">
        <ele>1521.904296875</ele>
        <time>2007-11-27T03:58:56Z</time>
      </trkpt>
      <trkpt lat="46.5010929107666" lon="14.2481732368469">
        <ele>1531.998046875</ele>
        <time>2007-11-27T03:59:54Z</time>
      </trkpt>
      <trkpt lat="46.5011787414551" lon="14.2484307289124">
        <ele>1535.84350585938</ele>
        <time>2007-11-27T04:00:57Z</time>
      </trkpt>
      <trkpt lat="46.5012216567994" lon="14.248366355896">
        <ele>1537.28540039063</ele>
        <time>2007-11-27T04:02:31Z</time>
      </trkpt>
      <trkpt lat="46.5012431144715" lon="14.2486453056336">
        <ele>1542.09204101563</ele>
        <time>2007-11-27T04:03:18Z</time>
      </trkpt>
      <trkpt lat="46.5011787414551" lon="14.2489242553711">
        <ele>1551.70532226563</ele>
        <time>2007-11-27T04:03:53Z</time>
      </trkpt>
      <trkpt lat="46.501157283783" lon="14.2491602897644">
        <ele>1554.58911132812</ele>
        <time>2007-11-27T04:04:18Z</time>
      </trkpt>
      <trkpt lat="46.5011787414551" lon="14.2494177818298">
        <ele>1559.87622070313</ele>
        <time>2007-11-27T04:05:28Z</time>
      </trkpt>
      <trkpt lat="46.5011358261109" lon="14.2496538162232">
        <ele>1554.58911132812</ele>
        <time>2007-11-27T04:05:51Z</time>
      </trkpt>
      <trkpt lat="46.5011143684388" lon="14.2498683929443">
        <ele>1548.34057617187</ele>
        <time>2007-11-27T04:06:53Z</time>
      </trkpt>
      <trkpt lat="46.5010714530945" lon="14.2500615119934">
        <ele>1548.34057617187</ele>
        <time>2007-11-27T04:08:12Z</time>
      </trkpt>
      <trkpt lat="46.5011143684388" lon="14.2503619194031">
        <ele>1543.05322265625</ele>
        <time>2007-11-27T04:08:30Z</time>
      </trkpt>
      <trkpt lat="46.5010714530945" lon="14.2506408691406">
        <ele>1539.2080078125</ele>
        <time>2007-11-27T04:08:46Z</time>
      </trkpt>
      <trkpt lat="46.5010499954224" lon="14.2509198188782">
        <ele>1537.76611328125</ele>
        <time>2007-11-27T04:09:03Z</time>
      </trkpt>
      <trkpt lat="46.5010070800782" lon="14.2511558532715">
        <ele>1532.47900390625</ele>
        <time>2007-11-27T04:09:21Z</time>
      </trkpt>
      <trkpt lat="46.5009641647339" lon="14.2513918876648">
        <ele>1530.07543945313</ele>
        <time>2007-11-27T04:09:39Z</time>
      </trkpt>
      <trkpt lat="46.500985622406" lon="14.2516279220581">
        <ele>1526.7109375</ele>
        <time>2007-11-27T04:10:17Z</time>
      </trkpt>
      <trkpt lat="46.5009641647339" lon="14.2519283294678">
        <ele>1524.3076171875</ele>
        <time>2007-11-27T04:10:30Z</time>
      </trkpt>
      <trkpt lat="46.5009427070618" lon="14.2522072792053">
        <ele>1521.904296875</ele>
        <time>2007-11-27T04:10:44Z</time>
      </trkpt>
      <trkpt lat="46.5009212493897" lon="14.2524647712708">
        <ele>1521.42358398438</ele>
        <time>2007-11-27T04:10:57Z</time>
      </trkpt>
      <trkpt lat="46.5009212493897" lon="14.2527437210083">
        <ele>1521.42358398438</ele>
        <time>2007-11-27T04:11:11Z</time>
      </trkpt>
      <trkpt lat="46.5008783340454" lon="14.2530012130737">
        <ele>1521.904296875</ele>
        <time>2007-11-27T04:12:26Z</time>
      </trkpt>
      <trkpt lat="46.5008783340454" lon="14.2532587051392">
        <ele>1522.86572265625</ele>
        <time>2007-11-27T04:13:00Z</time>
      </trkpt>
      <trkpt lat="46.5008354187012" lon="14.2535376548767">
        <ele>1525.74951171875</ele>
        <time>2007-11-27T04:13:24Z</time>
      </trkpt>
      <trkpt lat="46.500792503357" lon="14.25377368927">
        <ele>1524.3076171875</ele>
        <time>2007-11-27T04:13:38Z</time>
      </trkpt>
      <trkpt lat="46.5007710456849" lon="14.2540740966797">
        <ele>1525.74951171875</ele>
        <time>2007-11-27T04:13:55Z</time>
      </trkpt>
      <trkpt lat="46.5007495880127" lon="14.2543745040894">
        <ele>1529.5947265625</ele>
        <time>2007-11-27T04:14:12Z</time>
      </trkpt>
      <trkpt lat="46.5007281303406" lon="14.254674911499">
        <ele>1531.51733398438</ele>
        <time>2007-11-27T04:14:29Z</time>
      </trkpt>
      <trkpt lat="46.5007281303406" lon="14.2549538612366">
        <ele>1533.44018554687</ele>
        <time>2007-11-27T04:14:46Z</time>
      </trkpt>
      <trkpt lat="46.5007281303406" lon="14.2552328109741">
        <ele>1534.40161132812</ele>
        <time>2007-11-27T04:15:01Z</time>
      </trkpt>
      <trkpt lat="46.5006637573243" lon="14.2554688453674">
        <ele>1534.88232421875</ele>
        <time>2007-11-27T04:15:18Z</time>
      </trkpt>
      <trkpt lat="46.5006637573243" lon="14.2555546760559">
        <ele>1539.2080078125</ele>
        <time>2007-11-27T04:15:53Z</time>
      </trkpt>
      <trkpt lat="46.5006852149964" lon="14.2557907104492">
        <ele>1539.68872070312</ele>
        <time>2007-11-27T04:16:10Z</time>
      </trkpt>
      <trkpt lat="46.5007066726685" lon="14.2560482025147">
        <ele>1543.53393554687</ele>
        <time>2007-11-27T04:16:29Z</time>
      </trkpt>
      <trkpt lat="46.5006637573243" lon="14.256284236908">
        <ele>1551.70532226563</ele>
        <time>2007-11-27T04:17:23Z</time>
      </trkpt>
      <trkpt lat="46.5006422996521" lon="14.2564988136292">
        <ele>1556.99243164063</ele>
        <time>2007-11-27T04:17:45Z</time>
      </trkpt>
      <trkpt lat="46.5007066726685" lon="14.2567777633667">
        <ele>1558.9150390625</ele>
        <time>2007-11-27T04:18:12Z</time>
      </trkpt>
      <trkpt lat="46.5007281303406" lon="14.2570352554321">
        <ele>1561.79907226563</ele>
        <time>2007-11-27T04:18:31Z</time>
      </trkpt>
      <trkpt lat="46.5007281303406" lon="14.2573356628418">
        <ele>1567.56689453125</ele>
        <time>2007-11-27T04:18:56Z</time>
      </trkpt>
      <trkpt lat="46.5006852149964" lon="14.2576146125794">
        <ele>1575.25732421875</ele>
        <time>2007-11-27T04:19:29Z</time>
      </trkpt>
      <trkpt lat="46.5006637573243" lon="14.2578935623169">
        <ele>1583.90942382812</ele>
        <time>2007-11-27T04:20:41Z</time>
      </trkpt>
      <trkpt lat="46.5005993843079" lon="14.2581295967102">
        <ele>1587.27392578125</ele>
        <time>2007-11-27T04:21:20Z</time>
      </trkpt>
      <trkpt lat="46.5005135536194" lon="14.2583656311035">
        <ele>1592.56127929687</ele>
        <time>2007-11-27T04:22:08Z</time>
      </trkpt>
    </trkseg>
  </trk>
</gpx>
